createdAt,value
2018-07-05T00:00:06.448Z,9.80
2018-07-05T00:01:15.467Z,9.20
2018-07-05T00:02:31.448Z,9.60
2018-07-05T00:03:28.996Z,9.10
2018-07-05T00:04:35.562Z,9.20
2018-07-05T00:05:25.220Z,9.50
2018-07-05T00:06:44.173Z,9.40
2018-07-05T00:08:22.888Z,9.50
2018-07-05T00:09:20.333Z,9.80
2018-07-05T00:10:03.036Z,10.30
2018-07-05T00:11:01.097Z,10.10
2018-07-05T00:12:17.897Z,10.40
2018-07-05T00:13:51.082Z,10.20
2018-07-05T00:14:31.993Z,10.80
2018-07-05T00:16:28.370Z,9.80
2018-07-05T00:18:09.438Z,10.00
2018-07-05T00:19:01.355Z,10.20
2018-07-05T00:20:43.452Z,9.60
2018-07-05T00:22:16.530Z,9.70
2018-07-05T00:23:11.505Z,10.50
2018-07-05T00:24:35.695Z,10.90
2018-07-05T00:25:50.755Z,11.30
2018-07-05T00:26:43.694Z,11.10
2018-07-05T00:28:08.892Z,10.50
2018-07-05T00:30:12.284Z,10.40
2018-07-05T00:30:31.024Z,10.80
2018-07-05T00:32:29.502Z,10.60
2018-07-05T00:34:29.105Z,9.90
2018-07-05T00:35:45.498Z,10.10
2018-07-05T00:36:52.570Z,10.70
2018-07-05T00:38:28.727Z,10.50
2018-07-05T00:39:57.099Z,9.80
2018-07-05T00:41:17.889Z,10.00
2018-07-05T00:42:00.898Z,10.30
2018-07-05T00:42:59.380Z,10.00
2018-07-05T00:43:56.922Z,9.70
2018-07-05T00:44:53.650Z,9.80
2018-07-05T00:46:00.412Z,9.50
2018-07-05T00:47:28.183Z,9.70
2018-07-05T00:48:45.586Z,9.50
2018-07-05T00:50:43.962Z,9.90
2018-07-05T00:51:51.851Z,9.90
2018-07-05T00:53:01.791Z,10.10
2018-07-05T00:54:04.357Z,9.90
2018-07-05T00:54:47.682Z,10.50
2018-07-05T00:55:58.848Z,10.10
2018-07-05T00:57:14.208Z,10.00
2018-07-05T00:58:18.208Z,10.30
2018-07-05T00:59:14.223Z,11.10
2018-07-05T01:01:28.984Z,10.00
2018-07-05T01:02:36.361Z,9.80
2018-07-05T01:03:49.372Z,9.50
2018-07-05T01:04:48.767Z,9.00
2018-07-05T01:06:59.325Z,8.80
2018-07-05T01:07:52.677Z,8.50
2018-07-05T01:09:08.249Z,8.60
2018-07-05T01:10:13.892Z,8.70
2018-07-05T01:11:23.521Z,8.80
2018-07-05T01:14:37.364Z,9.20
2018-07-05T01:15:48.329Z,9.50
2018-07-05T01:16:41.990Z,9.10
2018-07-05T01:17:51.516Z,9.00
2018-07-05T01:20:05.256Z,10.40
2018-07-05T01:21:13.348Z,10.30
2018-07-05T01:22:04.754Z,10.70
2018-07-05T01:23:21.656Z,11.90
2018-07-05T01:25:25.053Z,10.60
2018-07-05T01:26:21.779Z,9.90
2018-07-05T01:27:34.996Z,10.30
2018-07-05T01:28:57.530Z,10.20
2018-07-05T01:29:54.978Z,10.30
2018-07-05T01:30:52.628Z,9.60
2018-07-05T01:31:57.865Z,9.80
2018-07-05T01:33:02.267Z,10.50
2018-07-05T01:34:13.847Z,11.10
2018-07-05T01:35:16.719Z,11.50
2018-07-05T01:37:36.498Z,10.80
2018-07-05T01:38:37.542Z,9.80
2018-07-05T01:39:48.184Z,10.30
2018-07-05T01:40:42.865Z,10.80
2018-07-05T01:41:56.399Z,10.60
2018-07-05T01:42:54.038Z,10.00
2018-07-05T01:44:06.747Z,10.40
2018-07-05T01:45:03.990Z,10.70
2018-07-05T01:46:19.972Z,10.50
2018-07-05T01:48:21.027Z,10.60
2018-07-05T01:49:34.227Z,11.00
2018-07-05T01:51:37.545Z,10.40
2018-07-05T01:52:49.399Z,10.70
2018-07-05T01:54:02.105Z,12.00
2018-07-05T01:54:56.684Z,13.30
2018-07-05T01:55:57.716Z,14.00
2018-07-05T01:57:06.937Z,12.80
2018-07-05T01:58:12.884Z,12.40
2018-07-05T02:00:24.982Z,12.80
2018-07-05T02:02:41.481Z,11.70
2018-07-05T02:03:55.321Z,10.00
2018-07-05T02:04:51.222Z,10.30
2018-07-05T02:05:51.536Z,10.70
2018-07-05T02:07:07.315Z,10.40
2018-07-05T02:07:57.079Z,10.40
2018-07-05T02:09:08.351Z,10.30
2018-07-05T02:10:07.128Z,10.70
2018-07-05T02:11:17.478Z,11.30
2018-07-05T02:12:27.322Z,11.00
2018-07-05T02:13:25.583Z,10.50
2018-07-05T02:14:27.660Z,10.60
2018-07-05T02:15:43.619Z,11.30
2018-07-05T02:16:56.628Z,12.50
2018-07-05T02:17:53.359Z,12.80
2018-07-05T02:18:55.557Z,11.70
2018-07-05T02:19:59.724Z,11.70
2018-07-05T02:21:12.327Z,11.20
2018-07-05T02:22:17.347Z,11.20
2018-07-05T02:24:22.564Z,11.40
2018-07-05T02:25:26.686Z,11.80
2018-07-05T02:26:27.818Z,11.70
2018-07-05T02:27:35.814Z,11.90
2018-07-05T02:28:42.681Z,11.60
2018-07-05T02:29:50.683Z,11.10
2018-07-05T02:30:52.220Z,11.60
2018-07-05T02:32:08.200Z,11.40
2018-07-05T02:33:05.340Z,11.50
2018-07-05T02:34:12.207Z,12.10
2018-07-05T02:35:21.224Z,12.20
2018-07-05T02:36:20.310Z,12.20
2018-07-05T02:38:35.377Z,12.10
2018-07-05T02:39:41.221Z,11.70
2018-07-05T02:40:36.823Z,12.60
2018-07-05T02:41:56.047Z,13.00
2018-07-05T02:42:59.162Z,13.00
2018-07-05T02:43:54.152Z,13.10
2018-07-05T02:44:59.584Z,13.00
2018-07-05T02:47:15.778Z,12.00
2018-07-05T02:48:26.640Z,13.00
2018-07-05T02:49:26.544Z,13.70
2018-07-05T02:50:40.791Z,13.60
2018-07-05T02:52:45.815Z,13.50
2018-07-05T02:54:54.636Z,13.70
2018-07-05T02:56:00.149Z,14.20
2018-07-05T02:57:05.912Z,13.50
2018-07-05T02:58:17.053Z,13.30
2018-07-05T03:01:32.462Z,13.50
2018-07-05T03:02:42.581Z,13.50
2018-07-05T03:03:38.055Z,13.40
2018-07-05T03:05:50.308Z,13.10
2018-07-05T03:06:54.627Z,13.30
2018-07-05T03:08:06.705Z,13.50
2018-07-05T03:09:13.265Z,13.30
2018-07-05T03:10:15.626Z,13.30
2018-07-05T03:11:17.581Z,13.50
2018-07-05T03:13:31.827Z,13.80
2018-07-05T03:14:33.474Z,14.30
2018-07-05T03:15:44.745Z,13.50
2018-07-05T03:17:52.846Z,13.80
2018-07-05T03:18:52.649Z,13.60
2018-07-05T03:19:58.906Z,12.80
2018-07-05T03:21:09.865Z,12.90
2018-07-05T03:22:13.053Z,13.00
2018-07-05T03:23:20.062Z,12.50
2018-07-05T03:24:33.539Z,13.30
2018-07-05T03:25:26.341Z,12.70
2018-07-05T03:27:41.206Z,12.70
2018-07-05T03:28:51.900Z,13.30
2018-07-05T03:30:03.600Z,13.20
2018-07-05T03:30:57.439Z,12.40
2018-07-05T03:32:03.181Z,12.50
2018-07-05T03:33:06.362Z,12.00
2018-07-05T03:34:17.068Z,11.90
2018-07-05T03:35:19.073Z,12.70
2018-07-05T03:36:31.266Z,12.90
2018-07-05T03:37:32.302Z,13.20
2018-07-05T03:38:39.881Z,13.40
2018-07-05T03:39:40.194Z,13.20
2018-07-05T03:40:39.179Z,13.30
2018-07-05T03:41:50.448Z,12.80
2018-07-05T03:43:02.540Z,12.50
2018-07-05T03:44:04.593Z,12.20
2018-07-05T03:45:11.462Z,12.00
2018-07-05T03:46:20.992Z,12.60
2018-07-05T03:47:29.602Z,12.70
2018-07-05T03:48:23.974Z,12.10
2018-07-05T03:49:32.724Z,11.70
2018-07-05T03:50:54.095Z,11.90
2018-07-05T03:51:37.983Z,11.40
2018-07-05T03:52:47.041Z,11.70
2018-07-05T03:54:57.295Z,11.20
2018-07-05T03:57:09.290Z,11.70
2018-07-05T03:58:12.265Z,12.10
2018-07-05T04:00:27.026Z,12.70
2018-07-05T04:01:31.131Z,12.50
2018-07-05T04:02:35.996Z,12.70
2018-07-05T04:03:49.063Z,12.90
2018-07-05T04:05:56.615Z,13.90
2018-07-05T04:07:09.357Z,13.00
2018-07-05T04:09:12.444Z,12.60
2018-07-05T04:10:20.950Z,12.50
2018-07-05T04:11:17.577Z,12.00
2018-07-05T04:13:34.282Z,12.10
2018-07-05T04:14:47.807Z,12.30
2018-07-05T04:16:56.632Z,12.00
2018-07-05T04:17:54.072Z,12.00
2018-07-05T04:19:06.776Z,11.90
2018-07-05T04:20:05.656Z,12.10
2018-07-05T04:21:12.080Z,11.60
2018-07-05T04:22:14.993Z,11.70
2018-07-05T04:23:27.591Z,11.70
2018-07-05T04:24:34.665Z,11.20
2018-07-05T04:26:45.943Z,11.00
2018-07-05T04:27:51.786Z,11.10
2018-07-05T04:31:05.426Z,10.40
2018-07-05T04:32:05.086Z,11.40
2018-07-05T04:33:16.090Z,10.50
2018-07-05T04:34:16.566Z,10.70
2018-07-05T04:36:27.782Z,9.60
2018-07-05T04:37:35.673Z,9.80
2018-07-05T04:39:46.030Z,9.80
2018-07-05T04:43:01.001Z,10.00
2018-07-05T04:44:12.093Z,10.30
2018-07-05T04:45:20.674Z,9.80
2018-07-05T04:46:15.355Z,9.70
2018-07-05T04:47:28.368Z,10.90
2018-07-05T04:49:30.327Z,10.10
2018-07-05T04:50:46.089Z,9.90
2018-07-05T04:51:51.435Z,9.60
2018-07-05T04:52:55.948Z,10.00
2018-07-05T04:54:06.241Z,9.60
2018-07-05T04:55:07.225Z,9.50
2018-07-05T04:56:06.312Z,10.20
2018-07-05T04:57:25.090Z,9.80
2018-07-05T04:58:17.286Z,10.10
2018-07-05T05:00:34.194Z,10.20
2018-07-05T05:01:44.092Z,10.00
2018-07-05T05:02:39.635Z,9.40
2018-07-05T05:03:48.035Z,8.90
2018-07-05T05:04:53.093Z,9.10
2018-07-05T05:06:01.771Z,9.20
2018-07-05T05:07:05.166Z,9.30
2018-07-05T05:08:11.411Z,9.00
2018-07-05T05:09:20.095Z,9.00
2018-07-05T05:10:22.095Z,9.20
2018-07-05T05:11:22.595Z,9.00
2018-07-05T05:12:42.464Z,8.90
2018-07-05T05:13:47.906Z,9.20
2018-07-05T05:14:48.008Z,8.80
2018-07-05T05:15:45.574Z,8.00
2018-07-05T05:16:54.884Z,9.00
2018-07-05T05:20:21.326Z,9.00
2018-07-05T05:21:16.315Z,9.10
2018-07-05T05:22:19.596Z,9.60
2018-07-05T05:24:34.967Z,9.80
2018-07-05T05:26:46.865Z,9.20
2018-07-05T05:27:56.158Z,9.00
2018-07-05T05:28:58.651Z,9.20
2018-07-05T05:30:10.947Z,9.20
2018-07-05T05:31:15.766Z,8.60
2018-07-05T05:32:06.350Z,8.20
2018-07-05T05:33:31.550Z,8.80
2018-07-05T05:34:26.947Z,9.10
2018-07-05T05:35:34.224Z,8.70
2018-07-05T05:37:41.100Z,9.30
2018-07-05T05:38:52.068Z,10.20
2018-07-05T05:41:01.190Z,10.00
2018-07-05T05:42:17.991Z,10.30
2018-07-05T05:43:03.106Z,11.00
2018-07-05T05:44:07.456Z,10.40
2018-07-05T05:45:24.667Z,9.60
2018-07-05T05:46:23.758Z,8.70
2018-07-05T05:47:27.035Z,10.00
2018-07-05T05:48:42.514Z,9.90
2018-07-05T05:50:40.162Z,12.00
2018-07-05T05:52:10.685Z,11.90
2018-07-05T05:53:01.888Z,11.60
2018-07-05T05:54:18.483Z,11.90
2018-07-05T05:55:16.748Z,10.70
2018-07-05T05:56:27.914Z,11.10
2018-07-05T05:57:15.224Z,12.10
2018-07-05T05:59:42.784Z,13.50
2018-07-05T06:00:37.261Z,12.80
2018-07-05T06:01:43.424Z,12.80
2018-07-05T06:02:53.353Z,13.20
2018-07-05T06:03:55.716Z,12.20
2018-07-05T06:05:12.105Z,13.00
2018-07-05T06:06:17.133Z,12.00
2018-07-05T06:07:19.902Z,12.70
2018-07-05T06:08:18.882Z,12.80
2018-07-05T06:09:28.620Z,12.80
2018-07-05T06:10:44.402Z,12.20
2018-07-05T06:11:46.860Z,12.80
2018-07-05T06:12:50.145Z,12.00
2018-07-05T06:13:54.115Z,12.20
2018-07-05T06:14:54.149Z,11.70
2018-07-05T06:15:47.602Z,12.00
2018-07-05T06:18:13.728Z,11.30
2018-07-05T06:19:26.116Z,12.30
2018-07-05T06:20:21.118Z,12.40
2018-07-05T06:21:32.487Z,13.00
2018-07-05T06:22:21.320Z,12.90
2018-07-05T06:23:30.126Z,12.50
2018-07-05T06:24:43.057Z,12.60
2018-07-05T06:26:19.648Z,13.40
2018-07-05T06:27:12.459Z,12.40
2018-07-05T06:27:51.123Z,12.40
2018-07-05T06:29:10.937Z,11.80
2018-07-05T06:30:28.557Z,10.80
2018-07-05T06:31:19.870Z,11.50
2018-07-05T06:32:35.535Z,11.10
2018-07-05T06:33:54.588Z,11.70
2018-07-05T06:34:53.878Z,12.60
2018-07-05T06:35:49.790Z,11.50
2018-07-05T06:36:53.123Z,12.60
2018-07-05T06:38:00.450Z,12.50
2018-07-05T06:39:26.584Z,12.40
2018-07-05T06:40:28.013Z,12.80
2018-07-05T06:40:54.646Z,11.60
2018-07-05T06:42:26.181Z,11.90
2018-07-05T06:43:24.653Z,11.40
2018-07-05T06:44:09.301Z,11.90
2018-07-05T06:45:46.171Z,12.00
2018-07-05T06:46:48.326Z,12.50
2018-07-05T06:47:34.226Z,13.10
2018-07-05T06:48:55.129Z,13.80
2018-07-05T06:49:50.131Z,14.80
2018-07-05T06:51:19.588Z,15.50
2018-07-05T06:52:26.251Z,15.50
2018-07-05T06:52:58.113Z,15.80
2018-07-05T06:54:21.346Z,15.60
2018-07-05T06:55:19.715Z,15.80
2018-07-05T06:56:43.890Z,16.50
2018-07-05T06:57:43.384Z,16.00
2018-07-05T06:58:28.856Z,16.70
2018-07-05T07:00:03.160Z,16.70
2018-07-05T07:01:52.130Z,17.10
2018-07-05T07:02:51.617Z,18.20
2018-07-05T07:03:51.514Z,18.80
2018-07-05T07:05:12.514Z,19.00
2018-07-05T07:06:05.762Z,18.80
2018-07-05T07:07:11.298Z,20.00
2018-07-05T07:08:18.472Z,19.80
2018-07-05T07:09:29.540Z,22.00
2018-07-05T07:10:42.969Z,21.20
2018-07-05T07:11:37.846Z,22.10
2018-07-05T07:12:48.606Z,23.80
2018-07-05T07:13:44.213Z,23.60
2018-07-05T07:14:48.618Z,24.90
2018-07-05T07:16:06.186Z,25.00
2018-07-05T07:18:08.506Z,27.50
2018-07-05T07:19:15.886Z,27.70
2018-07-05T07:20:33.709Z,27.70
2018-07-05T07:22:46.336Z,25.40
2018-07-05T07:23:35.142Z,25.80
2018-07-05T07:25:49.522Z,28.20
2018-07-05T07:26:57.822Z,28.40
2018-07-05T07:27:58.643Z,27.60
2018-07-05T07:29:14.828Z,27.00
2018-07-05T07:30:09.511Z,27.80
2018-07-05T07:31:11.781Z,27.40
2018-07-05T07:32:25.495Z,27.80
2018-07-05T07:33:32.779Z,27.00
2018-07-05T07:34:36.144Z,27.70
2018-07-05T07:35:28.144Z,29.10
2018-07-05T07:36:37.709Z,29.20
2018-07-05T07:37:50.108Z,27.90
2018-07-05T07:38:53.397Z,26.50
2018-07-05T07:40:06.197Z,26.30
2018-07-05T07:42:11.728Z,26.90
2018-07-05T07:43:09.187Z,26.50
2018-07-05T07:44:30.239Z,28.50
2018-07-05T07:45:25.427Z,29.90
2018-07-05T07:46:30.200Z,30.10
2018-07-05T07:47:34.810Z,30.10
2018-07-05T07:48:45.681Z,29.20
2018-07-05T07:50:58.293Z,27.70
2018-07-05T07:51:56.346Z,29.80
2018-07-05T07:54:09.977Z,27.30
2018-07-05T07:55:06.612Z,25.60
2018-07-05T07:59:42.167Z,27.80
2018-07-05T08:00:42.149Z,27.90
2018-07-05T08:01:55.594Z,30.20
2018-07-05T08:02:55.095Z,28.80
2018-07-05T08:05:02.376Z,28.70
2018-07-05T08:06:20.201Z,28.80
2018-07-05T08:07:12.631Z,29.10
2018-07-05T08:08:24.411Z,27.70
2018-07-05T08:09:30.667Z,25.90
2018-07-05T08:10:32.922Z,27.80
2018-07-05T08:11:48.152Z,27.90
2018-07-05T08:12:53.215Z,29.00
2018-07-05T08:14:55.897Z,28.70
2018-07-05T08:15:55.996Z,29.10
2018-07-05T08:18:23.154Z,31.80
2018-07-05T08:19:26.737Z,30.90
2018-07-05T08:20:38.829Z,28.20
2018-07-05T08:21:29.312Z,29.70
2018-07-05T08:22:41.508Z,30.90
2018-07-05T08:23:45.503Z,31.20
2018-07-05T08:24:54.111Z,32.30
2018-07-05T08:25:51.741Z,32.10
2018-07-05T08:26:54.133Z,33.70
2018-07-05T08:29:18.828Z,35.00
2018-07-05T08:30:15.966Z,34.70
2018-07-05T08:32:22.941Z,33.90
2018-07-05T08:33:24.280Z,36.00
2018-07-05T08:34:33.290Z,35.50
2018-07-05T08:35:51.744Z,34.10
2018-07-05T08:36:58.188Z,36.30
2018-07-05T08:37:50.943Z,38.60
2018-07-05T08:38:49.161Z,35.90
2018-07-05T08:40:20.125Z,36.10
2018-07-05T08:41:09.468Z,38.80
2018-07-05T08:42:24.845Z,36.40
2018-07-05T08:43:29.665Z,41.30
2018-07-05T08:44:23.018Z,36.00
2018-07-05T08:46:54.466Z,35.90
2018-07-05T08:47:47.725Z,35.40
2018-07-05T08:49:01.958Z,36.80
2018-07-05T08:50:36.172Z,34.60
2018-07-05T08:52:15.703Z,38.40
2018-07-05T08:52:41.098Z,39.80
2018-07-05T08:54:06.392Z,36.10
2018-07-05T08:55:16.333Z,34.40
2018-07-05T08:55:58.170Z,35.90
2018-07-05T08:57:10.168Z,35.00
2018-07-05T08:58:21.479Z,35.10
2018-07-05T09:00:17.169Z,35.70
2018-07-05T09:01:27.741Z,37.10
2018-07-05T09:02:22.626Z,42.90
2018-07-05T09:03:36.868Z,44.50
2018-07-05T09:04:36.873Z,42.30
2018-07-05T09:05:43.333Z,41.30
2018-07-05T09:07:51.172Z,40.80
2018-07-05T09:08:53.900Z,42.40
2018-07-05T09:10:08.171Z,43.50
2018-07-05T09:11:20.741Z,43.40
2018-07-05T09:12:20.339Z,43.70
2018-07-05T09:13:23.110Z,37.80
2018-07-05T09:15:37.567Z,42.10
2018-07-05T09:16:42.792Z,36.60
2018-07-05T09:17:49.366Z,39.90
2018-07-05T09:18:55.606Z,43.00
2018-07-05T09:21:01.152Z,39.30
2018-07-05T09:22:12.224Z,41.90
2018-07-05T09:23:15.868Z,42.60
2018-07-05T09:24:09.481Z,41.20
2018-07-05T09:26:37.152Z,38.30
2018-07-05T09:27:28.941Z,41.20
2018-07-05T09:28:44.513Z,44.40
2018-07-05T09:30:05.614Z,44.80
2018-07-05T09:30:50.364Z,42.90
2018-07-05T09:32:06.761Z,37.30
2018-07-05T09:33:04.922Z,41.10
2018-07-05T09:34:24.797Z,40.80
2018-07-05T09:35:18.669Z,38.10
2018-07-05T09:37:30.266Z,37.00
2018-07-05T09:38:36.500Z,38.50
2018-07-05T09:39:35.064Z,43.20
2018-07-05T09:40:40.089Z,43.60
2018-07-05T09:42:47.884Z,36.10
2018-07-05T09:45:06.329Z,35.80
2018-07-05T09:46:00.199Z,39.90
2018-07-05T09:47:16.892Z,35.40
2018-07-05T09:48:41.072Z,35.00
2018-07-05T09:49:38.819Z,37.60
2018-07-05T09:50:40.258Z,38.20
2018-07-05T09:51:45.999Z,36.60
2018-07-05T09:53:43.263Z,35.90
2018-07-05T09:54:49.406Z,39.20
2018-07-05T09:56:15.724Z,32.50
2018-07-05T09:57:34.311Z,31.30
2018-07-05T09:58:14.513Z,32.80
2018-07-05T09:59:12.779Z,34.30
2018-07-05T10:00:24.464Z,30.60
2018-07-05T10:01:36.034Z,33.40
2018-07-05T10:02:26.622Z,31.20
2018-07-05T10:03:36.203Z,29.50
2018-07-05T10:04:35.187Z,32.10
2018-07-05T10:05:42.920Z,29.80
2018-07-05T10:06:56.343Z,32.00
2018-07-05T10:07:55.221Z,34.10
2018-07-05T10:09:09.053Z,31.40
2018-07-05T10:10:07.113Z,33.00
2018-07-05T10:11:12.760Z,30.40
2018-07-05T10:13:28.106Z,29.00
2018-07-05T10:15:38.074Z,27.40
2018-07-05T10:17:42.595Z,29.70
2018-07-05T10:18:52.847Z,29.80
2018-07-05T10:19:52.231Z,28.90
2018-07-05T10:20:58.697Z,31.00
2018-07-05T10:22:14.569Z,26.90
2018-07-05T10:23:19.388Z,30.30
2018-07-05T10:24:30.558Z,28.30
2018-07-05T10:26:32.822Z,24.90
2018-07-05T10:27:32.934Z,21.40
2018-07-05T10:28:32.737Z,23.30
2018-07-05T10:29:45.747Z,24.30
2018-07-05T10:32:12.281Z,24.40
2018-07-05T10:33:06.350Z,24.10
2018-07-05T10:35:10.663Z,23.70
2018-07-05T10:37:30.441Z,25.00
2018-07-05T10:38:27.682Z,27.80
2018-07-05T10:41:42.039Z,22.40
2018-07-05T10:42:58.429Z,22.00
2018-07-05T10:43:56.183Z,24.00
2018-07-05T10:46:10.330Z,24.40
2018-07-05T10:47:30.825Z,21.10
2018-07-05T10:48:24.207Z,22.10
2018-07-05T10:49:31.239Z,18.40
2018-07-05T10:50:37.917Z,18.50
2018-07-05T10:53:00.342Z,17.20
2018-07-05T10:53:59.735Z,17.70
2018-07-05T10:54:51.240Z,19.60
2018-07-05T10:57:06.922Z,19.50
2018-07-05T10:58:21.266Z,20.20
2018-07-05T10:59:17.690Z,22.90
2018-07-05T11:00:25.784Z,25.40
2018-07-05T11:01:29.989Z,23.60
2018-07-05T11:02:34.913Z,23.20
2018-07-05T11:06:54.496Z,21.80
2018-07-05T11:09:14.076Z,21.90
2018-07-05T11:10:09.569Z,21.50
2018-07-05T11:11:24.632Z,24.40
2018-07-05T11:12:20.848Z,25.50
2018-07-05T11:13:29.046Z,24.70
2018-07-05T11:14:36.360Z,26.00
2018-07-05T11:15:48.005Z,25.40
2018-07-05T11:17:52.219Z,25.70
2018-07-05T11:19:18.132Z,24.40
2018-07-05T11:21:05.347Z,20.10
2018-07-05T11:22:14.569Z,19.50
2018-07-05T11:23:22.571Z,18.60
2018-07-05T11:25:31.689Z,19.20
2018-07-05T11:26:40.092Z,19.50
2018-07-05T11:27:47.886Z,18.70
2018-07-05T11:29:52.103Z,17.40
2018-07-05T11:30:58.355Z,17.30
2018-07-05T11:33:14.439Z,15.10
2018-07-05T11:35:33.090Z,14.90
2018-07-05T11:36:31.316Z,15.00
2018-07-05T11:37:33.921Z,14.80
2018-07-05T11:38:39.356Z,14.70
2018-07-05T11:40:48.865Z,15.10
2018-07-05T11:42:04.978Z,14.50
2018-07-05T11:45:13.298Z,15.50
2018-07-05T11:46:12.992Z,14.50
2018-07-05T11:48:35.945Z,13.80
2018-07-05T11:49:33.214Z,14.10
2018-07-05T11:50:34.523Z,14.10
2018-07-05T11:52:46.417Z,14.10
2018-07-05T11:53:57.583Z,13.30
2018-07-05T11:55:01.277Z,14.10
2018-07-05T11:56:16.851Z,14.00
2018-07-05T11:57:18.183Z,13.30
2018-07-05T11:58:16.964Z,12.30
2018-07-05T11:59:24.138Z,13.20
2018-07-05T12:00:28.225Z,13.60
2018-07-05T12:02:35.737Z,12.90
2018-07-05T12:03:42.089Z,12.20
2018-07-05T12:04:41.587Z,11.10
2018-07-05T12:05:56.127Z,11.20
2018-07-05T12:07:14.157Z,10.40
2018-07-05T12:08:16.519Z,9.80
2018-07-05T12:09:10.075Z,10.90
2018-07-05T12:10:19.709Z,10.60
2018-07-05T12:11:27.496Z,10.00
2018-07-05T12:13:37.242Z,9.30
2018-07-05T12:14:36.834Z,8.60
2018-07-05T12:15:49.130Z,8.70
2018-07-05T12:16:57.848Z,8.40
2018-07-05T12:17:55.185Z,8.90
2018-07-05T12:21:15.276Z,8.00
2018-07-05T12:22:23.577Z,7.50
2018-07-05T12:23:25.734Z,7.20
2018-07-05T12:24:30.047Z,7.40
2018-07-05T12:25:36.504Z,6.90
2018-07-05T12:26:36.302Z,7.70
2018-07-05T12:27:52.898Z,7.50
2018-07-05T12:28:53.314Z,7.30
2018-07-05T12:30:02.335Z,7.10
2018-07-05T12:31:06.232Z,7.40
2018-07-05T12:32:13.712Z,7.30
2018-07-05T12:33:15.358Z,7.50
2018-07-05T12:34:16.901Z,8.50
2018-07-05T12:35:30.117Z,8.80
2018-07-05T12:36:27.564Z,8.90
2018-07-05T12:38:39.149Z,9.00
2018-07-05T12:41:03.329Z,8.90
2018-07-05T12:42:02.518Z,8.20
2018-07-05T12:43:04.673Z,7.60
2018-07-05T12:44:11.746Z,7.30
2018-07-05T12:45:14.313Z,6.90
2018-07-05T12:46:30.201Z,7.40
2018-07-05T12:47:37.675Z,6.80
2018-07-05T12:48:33.240Z,6.20
2018-07-05T12:49:37.686Z,6.90
2018-07-05T12:50:40.976Z,6.50
2018-07-05T12:51:53.218Z,6.70
2018-07-05T12:52:49.689Z,6.60
2018-07-05T12:55:01.068Z,6.40
2018-07-05T12:56:12.442Z,6.50
2018-07-05T12:57:15.010Z,6.70
2018-07-05T12:58:20.342Z,6.60
2018-07-05T12:59:31.919Z,5.80
2018-07-05T13:01:43.912Z,5.80
2018-07-05T13:02:49.673Z,6.60
2018-07-05T13:04:55.814Z,7.00
2018-07-05T13:06:03.293Z,7.00
2018-07-05T13:07:12.519Z,6.50
2018-07-05T13:08:09.657Z,6.30
2018-07-05T13:09:18.469Z,5.90
2018-07-05T13:12:31.737Z,5.90
2018-07-05T13:13:37.649Z,6.50
2018-07-05T13:14:42.783Z,6.10
2018-07-05T13:15:50.251Z,5.90
2018-07-05T13:16:56.614Z,6.10
2018-07-05T13:17:59.384Z,6.50
2018-07-05T13:19:14.658Z,5.80
2018-07-05T13:20:08.510Z,5.20
2018-07-05T13:22:25.521Z,4.90
2018-07-05T13:23:28.199Z,5.20
2018-07-05T13:24:34.548Z,5.40
2018-07-05T13:25:41.115Z,5.50
2018-07-05T13:26:47.069Z,5.70
2018-07-05T13:27:48.391Z,5.40
2018-07-05T13:28:57.613Z,4.80
2018-07-05T13:30:12.981Z,4.80
2018-07-05T13:31:03.977Z,5.70
2018-07-05T13:32:15.760Z,4.80
2018-07-05T13:33:16.381Z,4.50
2018-07-05T13:34:26.014Z,4.90
2018-07-05T13:35:30.526Z,4.50
2018-07-05T13:36:32.689Z,4.40
2018-07-05T13:37:42.220Z,4.20
2018-07-05T13:38:48.059Z,4.30
2018-07-05T13:40:53.089Z,4.50
2018-07-05T13:42:05.178Z,4.10
2018-07-05T13:43:07.749Z,4.00
2018-07-05T13:44:06.282Z,4.70
2018-07-05T13:45:22.556Z,4.90
2018-07-05T13:46:27.124Z,4.60
2018-07-05T13:47:27.229Z,4.50
2018-07-05T13:48:33.789Z,4.40
2018-07-05T13:49:35.127Z,4.60
2018-07-05T13:51:47.943Z,4.20
2018-07-05T13:52:59.519Z,4.50
2018-07-05T13:54:07.551Z,4.60
2018-07-05T13:56:25.550Z,4.50
2018-07-05T13:57:18.696Z,4.50
2018-07-05T13:58:23.413Z,3.90
2018-07-05T13:59:45.640Z,4.50
2018-07-05T14:00:36.637Z,4.50
2018-07-05T14:01:42.889Z,4.50
2018-07-05T14:02:45.867Z,4.30
2018-07-05T14:03:48.745Z,4.40
2018-07-05T14:05:05.642Z,4.60
2018-07-05T14:06:04.011Z,4.50
2018-07-05T14:07:07.910Z,4.60
2018-07-05T14:08:19.282Z,4.30
2018-07-05T14:09:17.762Z,4.40
2018-07-05T14:10:27.455Z,4.00
2018-07-05T14:12:38.981Z,4.60
2018-07-05T14:13:41.130Z,4.50
2018-07-05T14:14:47.492Z,4.30
2018-07-05T14:15:53.941Z,4.80
2018-07-05T14:17:03.369Z,4.30
2018-07-05T14:18:06.275Z,4.90
2018-07-05T14:19:16.271Z,4.40
2018-07-05T14:20:16.701Z,4.50
2018-07-05T14:21:16.607Z,4.60
2018-07-05T14:22:34.739Z,5.00
2018-07-05T14:23:35.271Z,4.80
2018-07-05T14:24:33.265Z,4.40
2018-07-05T14:25:41.926Z,4.40
2018-07-05T14:26:52.787Z,4.60
2018-07-05T14:27:47.366Z,4.40
2018-07-05T14:29:01.096Z,4.30
2018-07-05T14:30:03.663Z,4.60
2018-07-05T14:31:15.310Z,4.40
2018-07-05T14:32:13.097Z,3.90
2018-07-05T14:33:19.286Z,4.20
2018-07-05T14:34:20.177Z,4.30
2018-07-05T14:35:31.960Z,4.10
2018-07-05T14:36:34.741Z,4.10
2018-07-05T14:37:46.004Z,4.00
2018-07-05T14:38:58.606Z,3.90
2018-07-05T14:39:55.538Z,3.70
2018-07-05T14:40:58.822Z,3.40
2018-07-05T14:42:03.342Z,3.80
2018-07-05T14:43:10.412Z,3.70
2018-07-05T14:46:31.535Z,3.70
2018-07-05T14:47:32.253Z,3.80
2018-07-05T14:48:49.353Z,3.50
2018-07-05T14:50:51.825Z,3.40
2018-07-05T14:51:59.834Z,3.40
2018-07-05T14:54:04.952Z,3.50
2018-07-05T14:55:16.334Z,3.30
2018-07-05T14:58:31.301Z,3.50
2018-07-05T15:00:35.006Z,3.10
2018-07-05T15:02:53.852Z,4.00
2018-07-05T15:03:48.329Z,3.00
2018-07-05T15:04:55.607Z,3.30
2018-07-05T15:06:17.731Z,3.30
2018-07-05T15:08:26.450Z,3.00
2018-07-05T15:09:23.590Z,3.20
2018-07-05T15:10:33.528Z,3.20
2018-07-05T15:11:35.276Z,2.90
2018-07-05T15:14:59.259Z,3.00
2018-07-05T15:17:03.471Z,2.80
2018-07-05T15:18:06.857Z,2.90
2018-07-05T15:19:17.317Z,3.10
2018-07-05T15:21:19.584Z,3.00
2018-07-05T15:22:33.519Z,2.80
2018-07-05T15:23:32.398Z,3.00
2018-07-05T15:25:45.203Z,3.00
2018-07-05T15:26:49.921Z,3.00
2018-07-05T15:28:00.372Z,2.90
2018-07-05T15:29:08.060Z,3.00
2018-07-05T15:30:00.400Z,2.80
2018-07-05T15:31:12.885Z,2.90
2018-07-05T15:32:16.065Z,3.30
2018-07-05T15:33:30.408Z,3.30
2018-07-05T15:34:27.856Z,3.00
2018-07-05T15:35:33.395Z,3.00
2018-07-05T15:36:45.379Z,2.90
2018-07-05T15:37:44.921Z,3.00
2018-07-05T15:38:51.657Z,2.90
2018-07-05T15:39:54.412Z,3.00
2018-07-05T15:41:00.974Z,2.90
2018-07-05T15:42:16.749Z,3.20
2018-07-05T15:43:20.356Z,3.00
2018-07-05T15:44:12.159Z,3.20
2018-07-05T15:45:27.436Z,2.90
2018-07-05T15:46:31.526Z,2.90
2018-07-05T15:47:38.081Z,3.00
2018-07-05T15:48:50.684Z,2.90
2018-07-05T15:49:52.534Z,2.70
2018-07-05T15:50:50.598Z,3.30
2018-07-05T15:51:49.783Z,3.00
2018-07-05T15:52:59.619Z,3.00
2018-07-05T15:54:06.286Z,3.10
2018-07-05T15:55:23.698Z,2.90
2018-07-05T15:56:17.569Z,3.00
2018-07-05T15:57:23.310Z,3.30
2018-07-05T15:59:34.477Z,3.10
2018-07-05T16:00:49.537Z,3.00
2018-07-05T16:01:44.833Z,2.90
2018-07-05T16:03:03.174Z,3.10
2018-07-05T16:03:56.828Z,3.30
2018-07-05T16:05:08.613Z,2.90
2018-07-05T16:06:06.368Z,2.90
2018-07-05T16:07:19.384Z,3.50
2018-07-05T16:09:22.770Z,3.40
2018-07-05T16:10:37.018Z,3.20
2018-07-05T16:12:41.947Z,3.10
2018-07-05T16:13:45.122Z,3.40
2018-07-05T16:14:53.328Z,3.30
2018-07-05T16:16:10.838Z,3.00
2018-07-05T16:17:08.182Z,3.30
2018-07-05T16:18:05.424Z,3.30
2018-07-05T16:19:22.442Z,3.10
2018-07-05T16:20:27.149Z,3.30
2018-07-05T16:21:30.941Z,3.20
2018-07-05T16:22:33.719Z,3.40
2018-07-05T16:23:37.918Z,3.30
2018-07-05T16:24:50.115Z,3.40
2018-07-05T16:25:50.632Z,3.30
2018-07-05T16:27:00.067Z,3.10
2018-07-05T16:28:05.596Z,3.30
2018-07-05T16:29:04.575Z,3.30
2018-07-05T16:30:13.389Z,3.20
2018-07-05T16:31:09.305Z,3.40
2018-07-05T16:32:21.083Z,3.40
2018-07-05T16:33:32.050Z,3.40
2018-07-05T16:34:41.397Z,3.30
2018-07-05T16:35:38.822Z,2.90
2018-07-05T16:37:58.086Z,3.10
2018-07-05T16:38:56.468Z,3.30
2018-07-05T16:40:03.525Z,3.50
2018-07-05T16:42:11.470Z,3.40
2018-07-05T16:43:26.325Z,3.10
2018-07-05T16:44:13.696Z,3.40
2018-07-05T16:45:33.256Z,3.30
2018-07-05T16:46:46.882Z,3.30
2018-07-05T16:47:39.320Z,3.20